Time;durP1;ratioP1;P1;durP2;ratioP2;P2;SDS_P1;SDS_P2;PMS_P1;PMS_P2;Temp;Humidity;BMP_temperature;BMP_pressure;BME280_temperature;BME280_humidity;BME280_pressure;Samples;Min_cycle;Max_cycle;Signal;HPM_P1;HPM_P2
2023/12/13 00:02:23;;;;;;;2.90;2.60;;;;;;;;;;5118052;28;20775;-62
2023/12/13 00:04:50;;;;;;;2.58;2.38;;;;;;;;;;5118082;28;20570;-62
2023/12/13 00:07:18;;;;;;;2.63;2.42;;;;;;;;;;5118010;28;20601;-62
2023/12/13 00:09:45;;;;;;;2.53;2.33;;;;;;;;;;5117737;28;20210;-62
2023/12/13 00:12:13;;;;;;;2.63;2.42;;;;;;;;;;5107833;28;20218;-62
2023/12/13 00:14:42;;;;;;;3.15;2.85;;;;;;;;;;5105877;28;20811;-62
2023/12/13 00:17:14;;;;;;;2.60;2.40;;;;;;;;;;5098682;28;20201;-62
2023/12/13 00:19:41;;;;;;;2.58;2.38;;;;;;;;;;5101570;28;20618;-62
2023/12/13 00:22:09;;;;;;;2.90;2.63;;;;;;;;;;5108692;28;20223;-62
2023/12/13 00:24:36;;;;;;;3.00;2.70;;;;;;;;;;5103060;28;20235;-62
2023/12/13 00:27:04;;;;;;;2.63;2.42;;;;;;;;;;5103555;28;20253;-62
2023/12/13 00:29:32;;;;;;;2.55;2.35;;;;;;;;;;5102035;28;20211;-62
2023/12/13 00:32:01;;;;;;;2.53;2.33;;;;;;;;;;5104977;28;20260;-62
2023/12/13 00:34:28;;;;;;;2.60;2.40;;;;;;;;;;5108725;28;20215;-62
2023/12/13 00:36:56;;;;;;;2.72;2.53;;;;;;;;;;5107968;28;20235;-62
2023/12/13 00:39:23;;;;;;;2.42;2.22;;;;;;;;;;5102604;28;20234;-62
2023/12/13 00:41:51;;;;;;;2.60;2.40;;;;;;;;;;5106532;28;20226;-62
2023/12/13 00:44:19;;;;;;;2.80;2.60;;;;;;;;;;5109754;28;20206;-62
2023/12/13 00:46:46;;;;;;;2.55;2.35;;;;;;;;;;5109644;28;20260;-62
2023/12/13 00:49:15;;;;;;;2.83;2.63;;;;;;;;;;5112397;28;20652;-62
2023/12/13 00:51:43;;;;;;;2.25;2.05;;;;;;;;;;5108401;28;20208;-62
2023/12/13 00:54:11;;;;;;;2.45;2.25;;;;;;;;;;5108386;28;20588;-62
2023/12/13 00:56:38;;;;;;;2.38;2.17;;;;;;;;;;5111945;28;20208;-62
2023/12/13 00:59:06;;;;;;;2.42;2.22;;;;;;;;;;5103670;28;20256;-63
2023/12/13 01:01:33;;;;;;;2.42;2.22;;;;;;;;;;5105807;28;20335;-62
2023/12/13 01:04:01;;;;;;;2.35;2.15;;;;;;;;;;5105925;28;20215;-62
2023/12/13 01:06:30;;;;;;;2.35;2.15;;;;;;;;;;5105591;28;20214;-62
2023/12/13 01:08:58;;;;;;;2.50;2.30;;;;;;;;;;5105423;28;20245;-62
2023/12/13 01:11:25;;;;;;;2.50;2.30;;;;;;;;;;5107385;28;20210;-62
2023/12/13 01:13:53;;;;;;;2.55;2.33;;;;;;;;;;5107151;28;20203;-62
2023/12/13 01:16:20;;;;;;;2.80;2.60;;;;;;;;;;5103240;28;20253;-62
2023/12/13 01:18:48;;;;;;;2.70;2.50;;;;;;;;;;5108618;28;20208;-62
2023/12/13 01:21:17;;;;;;;2.33;2.13;;;;;;;;;;5099910;28;20285;-62
2023/12/13 01:23:45;;;;;;;2.40;2.20;;;;;;;;;;5101386;28;20487;-62
2023/12/13 01:26:13;;;;;;;2.33;2.13;;;;;;;;;;5108471;28;20231;-62
2023/12/13 01:28:41;;;;;;;2.45;2.25;;;;;;;;;;5107810;28;20269;-62
2023/12/13 01:31:09;;;;;;;2.30;2.10;;;;;;;;;;5105159;28;20275;-62
2023/12/13 01:33:36;;;;;;;2.33;2.13;;;;;;;;;;5106181;28;20298;-62
2023/12/13 01:36:04;;;;;;;2.40;2.20;;;;;;;;;;5106730;28;20519;-62
2023/12/13 01:38:32;;;;;;;2.40;2.20;;;;;;;;;;5104296;28;20204;-62
2023/12/13 01:41:01;;;;;;;2.22;2.03;;;;;;;;;;5103372;27;20243;-62
2023/12/13 01:43:28;;;;;;;2.53;2.33;;;;;;;;;;5099932;28;20208;-62
2023/12/13 01:45:58;;;;;;;2.40;2.13;;;;;;;;;;5106455;28;20284;-62
2023/12/13 01:48:27;;;;;;;2.10;1.90;;;;;;;;;;5103588;28;20203;-62
2023/12/13 01:50:55;;;;;;;2.05;1.90;;;;;;;;;;5110504;28;20215;-62
2023/12/13 01:53:23;;;;;;;2.10;1.90;;;;;;;;;;5113084;28;20294;-62
2023/12/13 01:55:51;;;;;;;2.50;2.30;;;;;;;;;;5109414;28;20211;-62
2023/12/13 01:58:20;;;;;;;2.30;2.10;;;;;;;;;;5109778;28;20211;-63
2023/12/13 02:00:48;;;;;;;2.40;2.20;;;;;;;;;;5107833;28;20235;-62
2023/12/13 02:03:16;;;;;;;2.15;2.00;;;;;;;;;;5108845;28;20339;-62
2023/12/13 02:05:44;;;;;;;2.60;2.10;;;;;;;;;;5106298;28;20204;-62
2023/12/13 02:08:12;;;;;;;2.10;1.90;;;;;;;;;;5102770;28;20214;-62
2023/12/13 02:10:39;;;;;;;2.33;2.13;;;;;;;;;;5110578;28;20204;-62
2023/12/13 02:13:07;;;;;;;2.13;1.92;;;;;;;;;;5108373;28;20292;-62
2023/12/13 02:15:36;;;;;;;2.22;2.08;;;;;;;;;;5110180;28;20296;-62
2023/12/13 02:18:04;;;;;;;1.77;1.67;;;;;;;;;;5107320;28;20203;-62
2023/12/13 02:20:31;;;;;;;2.15;1.95;;;;;;;;;;5105304;28;20200;-62
2023/12/13 02:22:59;;;;;;;1.90;1.80;;;;;;;;;;5106008;28;20211;-62
2023/12/13 02:25:31;;;;;;;1.90;1.80;;;;;;;;;;5107880;28;20299;-62
2023/12/13 02:27:59;;;;;;;2.88;1.90;;;;;;;;;;5109402;28;20203;-62
2023/12/13 02:30:27;;;;;;;2.05;1.88;;;;;;;;;;5097318;28;20215;-62
2023/12/13 02:32:55;;;;;;;1.90;1.80;;;;;;;;;;5111616;28;20792;-62
2023/12/13 02:35:23;;;;;;;1.83;1.73;;;;;;;;;;5110061;28;20207;-62
2023/12/13 02:37:51;;;;;;;1.88;1.77;;;;;;;;;;5107750;28;20222;-62
2023/12/13 02:40:20;;;;;;;2.30;1.80;;;;;;;;;;5110345;28;20271;-62
2023/12/13 02:42:48;;;;;;;1.83;1.73;;;;;;;;;;5108375;28;20235;-62
2023/12/13 02:45:16;;;;;;;1.70;1.60;;;;;;;;;;5106725;28;20234;-62
2023/12/13 02:47:43;;;;;;;1.73;1.63;;;;;;;;;;5109723;28;20203;-62
2023/12/13 02:50:11;;;;;;;1.70;1.60;;;;;;;;;;5108234;28;20204;-62
2023/12/13 02:52:39;;;;;;;2.08;1.98;;;;;;;;;;5101727;28;20214;-62
2023/12/13 02:55:09;;;;;;;1.80;1.70;;;;;;;;;;5103251;28;20249;-63
2023/12/13 02:57:38;;;;;;;1.85;1.75;;;;;;;;;;5104403;28;20230;-62
2023/12/13 03:00:06;;;;;;;1.50;1.40;;;;;;;;;;5103383;28;20327;-62
2023/12/13 03:02:34;;;;;;;1.75;1.52;;;;;;;;;;5107654;28;20564;-62
2023/12/13 03:05:03;;;;;;;1.70;1.60;;;;;;;;;;5110186;27;20725;-62
2023/12/13 03:07:30;;;;;;;1.67;1.58;;;;;;;;;;5109797;28;20295;-62
2023/12/13 03:09:58;;;;;;;1.70;1.60;;;;;;;;;;5106161;28;20598;-62
2023/12/13 03:12:26;;;;;;;1.70;1.60;;;;;;;;;;5100369;28;20204;-62
2023/12/13 03:14:55;;;;;;;1.60;1.40;;;;;;;;;;5102596;28;20240;-62
2023/12/13 03:17:22;;;;;;;1.70;1.60;;;;;;;;;;5104793;28;20333;-62
2023/12/13 03:19:50;;;;;;;1.50;1.40;;;;;;;;;;5110884;28;20210;-62
2023/12/13 03:22:17;;;;;;;1.63;1.52;;;;;;;;;;5101734;28;20223;-62
2023/12/13 03:24:45;;;;;;;1.52;1.42;;;;;;;;;;5099385;28;20302;-62
2023/12/13 03:27:12;;;;;;;1.80;1.70;;;;;;;;;;5105736;28;20211;-62
2023/12/13 03:29:40;;;;;;;1.63;1.52;;;;;;;;;;5107222;28;20324;-62
2023/12/13 03:32:09;;;;;;;1.58;1.48;;;;;;;;;;5103863;28;20209;-62
2023/12/13 03:34:36;;;;;;;1.60;1.50;;;;;;;;;;5104845;28;20245;-62
2023/12/13 03:37:06;;;;;;;1.50;1.40;;;;;;;;;;5104851;28;20230;-62
2023/12/13 03:39:34;;;;;;;1.50;1.40;;;;;;;;;;5103124;28;20266;-62
2023/12/13 03:42:01;;;;;;;1.58;1.48;;;;;;;;;;5103862;28;20231;-62
2023/12/13 03:44:29;;;;;;;1.77;1.40;;;;;;;;;;5104750;28;20202;-62
2023/12/13 03:46:56;;;;;;;1.50;1.40;;;;;;;;;;5106740;28;20211;-62
2023/12/13 03:49:26;;;;;;;1.30;1.20;;;;;;;;;;5108564;28;20576;-62
2023/12/13 03:51:53;;;;;;;1.40;1.30;;;;;;;;;;5103141;28;20363;-62
2023/12/13 03:54:21;;;;;;;1.20;1.10;;;;;;;;;;5101831;28;20309;-62
2023/12/13 03:56:48;;;;;;;1.45;1.35;;;;;;;;;;5105769;28;20207;-62
2023/12/13 03:59:16;;;;;;;1.33;1.20;;;;;;;;;;5107713;28;20630;-62
2023/12/13 04:01:43;;;;;;;1.42;1.33;;;;;;;;;;5094519;28;20227;-62
2023/12/13 04:04:12;;;;;;;1.20;1.10;;;;;;;;;;5104231;28;20226;-62
2023/12/13 04:06:41;;;;;;;1.40;1.30;;;;;;;;;;5103016;28;20207;-62
2023/12/13 04:09:08;;;;;;;1.30;1.20;;;;;;;;;;5102608;28;20618;-62
2023/12/13 04:11:36;;;;;;;1.27;1.17;;;;;;;;;;5107908;28;20207;-62
2023/12/13 04:14:04;;;;;;;1.27;1.17;;;;;;;;;;5103622;28;20509;-62
2023/12/13 04:16:33;;;;;;;1.17;1.10;;;;;;;;;;5109527;28;20304;-62
2023/12/13 04:19:00;;;;;;;1.30;1.20;;;;;;;;;;5094690;28;20211;-62
2023/12/13 04:21:28;;;;;;;1.17;1.08;;;;;;;;;;5107207;28;20227;-62
2023/12/13 04:23:59;;;;;;;1.23;1.13;;;;;;;;;;5109620;28;20264;-63
2023/12/13 04:26:27;;;;;;;1.10;1.00;;;;;;;;;;5114038;28;20310;-62
2023/12/13 04:28:54;;;;;;;1.20;1.10;;;;;;;;;;5105661;28;20263;-62
2023/12/13 04:31:22;;;;;;;0.90;0.90;;;;;;;;;;5102818;28;20215;-62
2023/12/13 04:33:50;;;;;;;1.55;1.10;;;;;;;;;;5108188;28;20244;-62
2023/12/13 04:36:17;;;;;;;1.10;1.00;;;;;;;;;;5108159;28;20646;-62
2023/12/13 04:38:45;;;;;;;1.25;1.15;;;;;;;;;;5097196;28;20302;-62
2023/12/13 04:41:14;;;;;;;0.90;0.90;;;;;;;;;;5102879;28;20207;-62
2023/12/13 04:43:42;;;;;;;1.00;1.00;;;;;;;;;;5104110;28;20203;-62
2023/12/13 04:46:10;;;;;;;1.30;1.20;;;;;;;;;;5099556;28;20233;-62
2023/12/13 04:48:37;;;;;;;1.00;1.00;;;;;;;;;;5106691;28;20207;-62
2023/12/13 04:51:05;;;;;;;0.90;0.90;;;;;;;;;;5109146;28;20277;-62
2023/12/13 04:53:32;;;;;;;1.00;0.88;;;;;;;;;;5105469;28;20582;-62
2023/12/13 04:56:00;;;;;;;1.10;1.00;;;;;;;;;;5100429;28;20211;-62
2023/12/13 04:58:30;;;;;;;1.00;1.00;;;;;;;;;;5104525;28;20535;-62
2023/12/13 05:00:57;;;;;;;0.80;0.80;;;;;;;;;;5102858;28;20249;-62
2023/12/13 05:03:26;;;;;;;1.02;0.93;;;;;;;;;;5098878;28;20326;-62
2023/12/13 05:05:53;;;;;;;1.17;1.08;;;;;;;;;;5101515;28;20221;-62
2023/12/13 05:08:21;;;;;;;0.80;0.80;;;;;;;;;;5105385;28;20595;-62
2023/12/13 05:10:49;;;;;;;0.77;0.77;;;;;;;;;;5105999;28;20210;-62
2023/12/13 05:13:18;;;;;;;1.10;1.00;;;;;;;;;;5094639;28;20203;-62
2023/12/13 05:15:47;;;;;;;1.10;0.95;;;;;;;;;;5100254;28;20235;-62
2023/12/13 05:18:15;;;;;;;0.90;0.90;;;;;;;;;;5109474;28;20285;-62
2023/12/13 05:20:42;;;;;;;0.80;0.80;;;;;;;;;;5098280;27;20226;-62
2023/12/13 05:23:10;;;;;;;1.08;0.98;;;;;;;;;;5108008;28;20235;-62
2023/12/13 05:25:40;;;;;;;0.85;0.85;;;;;;;;;;5104231;28;20300;-62
2023/12/13 05:28:08;;;;;;;0.80;0.80;;;;;;;;;;5107142;28;20211;-62
2023/12/13 05:30:35;;;;;;;0.82;0.82;;;;;;;;;;5108702;28;20325;-62
2023/12/13 05:33:05;;;;;;;0.90;0.90;;;;;;;;;;5112900;28;20570;-62
2023/12/13 05:35:33;;;;;;;0.80;0.80;;;;;;;;;;5102401;28;20218;-62
2023/12/13 05:38:01;;;;;;;1.00;0.90;;;;;;;;;;5101967;28;20576;-62
2023/12/13 05:40:28;;;;;;;0.77;0.77;;;;;;;;;;5104010;28;20203;-62
2023/12/13 05:42:56;;;;;;;0.90;0.75;;;;;;;;;;5111943;28;20230;-62
2023/12/13 05:45:24;;;;;;;0.75;0.75;;;;;;;;;;5102235;28;20221;-62
2023/12/13 05:47:51;;;;;;;0.80;0.80;;;;;;;;;;5104052;28;20200;-62
2023/12/13 05:50:21;;;;;;;0.88;0.88;;;;;;;;;;5106731;28;20219;-62
2023/12/13 05:52:48;;;;;;;1.20;0.85;;;;;;;;;;5105031;28;20231;-62
2023/12/13 05:55:16;;;;;;;0.70;0.70;;;;;;;;;;5099059;28;20206;-62
2023/12/13 05:57:44;;;;;;;0.60;0.60;;;;;;;;;;5103947;28;20203;-62
2023/12/13 06:00:12;;;;;;;0.95;0.80;;;;;;;;;;5100285;28;20500;-62
2023/12/13 06:02:40;;;;;;;0.80;0.80;;;;;;;;;;5100909;28;20223;-62
2023/12/13 06:05:09;;;;;;;0.88;0.80;;;;;;;;;;5099666;28;20540;-62
2023/12/13 06:07:41;;;;;;;0.60;0.60;;;;;;;;;;5109595;28;20211;-62
2023/12/13 06:10:12;;;;;;;0.70;0.70;;;;;;;;;;5117652;28;20260;-62
2023/12/13 06:12:40;;;;;;;1.52;0.80;;;;;;;;;;5117752;28;20203;-62
2023/12/13 06:15:09;;;;;;;1.00;0.90;;;;;;;;;;5117430;28;20234;-62
2023/12/13 06:17:37;;;;;;;0.70;0.70;;;;;;;;;;5118124;28;20210;-63
2023/12/13 06:20:06;;;;;;;1.45;0.70;;;;;;;;;;5117590;28;20202;-62
2023/12/13 06:22:33;;;;;;;0.77;0.70;;;;;;;;;;5117816;28;20249;-62
2023/12/13 06:25:02;;;;;;;0.75;0.70;;;;;;;;;;5117578;28;20199;-62
2023/12/13 06:27:31;;;;;;;1.33;0.70;;;;;;;;;;5117667;28;20199;-62
2023/12/13 06:29:59;;;;;;;0.65;0.65;;;;;;;;;;5117589;27;20203;-62
2023/12/13 06:32:26;;;;;;;1.48;0.77;;;;;;;;;;5117659;28;20203;-62
2023/12/13 06:34:54;;;;;;;0.60;0.60;;;;;;;;;;5117403;28;20207;-62
2023/12/13 06:37:21;;;;;;;0.70;0.70;;;;;;;;;;5116737;28;20268;-62
2023/12/13 06:39:49;;;;;;;0.63;0.63;;;;;;;;;;5106195;28;20192;-62
2023/12/13 06:42:18;;;;;;;1.10;0.80;;;;;;;;;;5096013;28;20508;-62
2023/12/13 06:44:46;;;;;;;1.48;0.60;;;;;;;;;;5096990;28;20241;-62
2023/12/13 06:47:14;;;;;;;0.88;0.70;;;;;;;;;;5096745;28;20749;-62
2023/12/13 06:49:42;;;;;;;0.93;0.82;;;;;;;;;;5096950;28;20738;-62
2023/12/13 06:52:09;;;;;;;0.88;0.75;;;;;;;;;;5097290;28;20215;-62
2023/12/13 06:54:38;;;;;;;1.17;0.80;;;;;;;;;;5097059;28;20265;-62
2023/12/13 06:57:06;;;;;;;1.48;1.00;;;;;;;;;;5097093;28;20218;-62
2023/12/13 06:59:35;;;;;;;1.55;0.90;;;;;;;;;;5096737;28;20215;-62
2023/12/13 07:02:02;;;;;;;1.27;1.00;;;;;;;;;;5096451;28;20281;-62
2023/12/13 07:04:31;;;;;;;1.58;1.20;;;;;;;;;;5096680;28;20218;-62
2023/12/13 07:06:59;;;;;;;2.03;1.10;;;;;;;;;;5096243;28;20200;-62
2023/12/13 07:09:26;;;;;;;2.90;1.40;;;;;;;;;;5097241;28;20199;-63
2023/12/13 07:11:54;;;;;;;2.10;1.10;;;;;;;;;;5096808;28;20196;-62
2023/12/13 07:14:22;;;;;;;2.25;1.10;;;;;;;;;;5096431;28;20318;-62
2023/12/13 07:16:51;;;;;;;1.50;1.17;;;;;;;;;;5096496;28;20199;-62
2023/12/13 07:19:18;;;;;;;1.63;1.08;;;;;;;;;;5096516;28;20203;-62
2023/12/13 07:21:46;;;;;;;1.20;1.10;;;;;;;;;;5096836;28;20211;-62
2023/12/13 07:24:13;;;;;;;2.83;1.35;;;;;;;;;;5097050;28;20228;-63
2023/12/13 07:26:41;;;;;;;2.42;1.40;;;;;;;;;;5096658;28;20295;-62
2023/12/13 07:29:09;;;;;;;2.95;1.30;;;;;;;;;;5096431;28;20769;-62
2023/12/13 07:31:39;;;;;;;1.40;1.10;;;;;;;;;;5096915;28;20210;-62
2023/12/13 07:34:09;;;;;;;2.80;1.10;;;;;;;;;;5096695;28;20272;-62
2023/12/13 07:36:37;;;;;;;2.17;1.13;;;;;;;;;;5096061;28;20587;-62
2023/12/13 07:39:05;;;;;;;2.47;1.25;;;;;;;;;;5096837;28;20203;-62
2023/12/13 07:41:33;;;;;;;2.17;1.30;;;;;;;;;;5095225;28;20264;-62
2023/12/13 07:44:00;;;;;;;3.05;1.30;;;;;;;;;;5095658;28;20680;-62
2023/12/13 07:46:28;;;;;;;2.53;1.50;;;;;;;;;;5096230;28;20204;-62
2023/12/13 07:48:57;;;;;;;2.60;1.63;;;;;;;;;;5095787;28;20207;-62
2023/12/13 07:51:26;;;;;;;1.75;1.20;;;;;;;;;;5095733;28;20282;-62
2023/12/13 07:53:54;;;;;;;1.77;1.40;;;;;;;;;;5096328;28;20352;-63
2023/12/13 07:56:21;;;;;;;2.58;1.50;;;;;;;;;;5095934;28;20713;-62
2023/12/13 07:58:49;;;;;;;1.50;1.23;;;;;;;;;;5096236;28;20665;-62
2023/12/13 08:01:17;;;;;;;3.60;1.70;;;;;;;;;;5095961;28;20210;-62
2023/12/13 08:03:45;;;;;;;2.03;1.25;;;;;;;;;;5095871;28;20239;-62
2023/12/13 08:06:13;;;;;;;2.45;1.30;;;;;;;;;;5095914;28;20280;-62
2023/12/13 08:08:43;;;;;;;2.85;1.50;;;;;;;;;;5096798;28;20199;-62
2023/12/13 08:11:11;;;;;;;2.55;1.70;;;;;;;;;;5096107;28;20204;-62
2023/12/13 08:13:38;;;;;;;2.50;1.35;;;;;;;;;;5095899;28;20199;-62
2023/12/13 08:16:06;;;;;;;2.63;1.52;;;;;;;;;;5095605;28;20232;-62
2023/12/13 08:18:34;;;;;;;2.25;1.40;;;;;;;;;;5095721;28;20265;-62
2023/12/13 08:21:03;;;;;;;2.22;1.45;;;;;;;;;;5096110;28;20306;-62
2023/12/13 08:23:31;;;;;;;1.75;1.10;;;;;;;;;;5095724;28;20229;-62
2023/12/13 08:26:00;;;;;;;2.72;1.63;;;;;;;;;;5096058;28;20204;-62
2023/12/13 08:28:30;;;;;;;3.35;1.65;;;;;;;;;;5095765;28;20239;-62
2023/12/13 08:30:58;;;;;;;3.03;1.50;;;;;;;;;;5095867;28;20195;-62
2023/12/13 08:33:26;;;;;;;2.15;1.30;;;;;;;;;;5094951;28;20231;-62
2023/12/13 08:35:54;;;;;;;2.03;1.30;;;;;;;;;;5094760;28;20234;-63
2023/12/13 08:38:23;;;;;;;2.33;1.50;;;;;;;;;;5095468;28;20246;-62
2023/12/13 08:40:50;;;;;;;2.60;1.50;;;;;;;;;;5095396;28;20204;-62
2023/12/13 08:43:19;;;;;;;2.95;1.40;;;;;;;;;;5094990;28;20215;-62
2023/12/13 08:45:46;;;;;;;2.60;1.55;;;;;;;;;;5095549;28;20576;-62
2023/12/13 08:48:14;;;;;;;2.65;1.50;;;;;;;;;;5095297;28;20269;-62
2023/12/13 08:50:42;;;;;;;3.30;1.35;;;;;;;;;;5095452;28;20765;-62
2023/12/13 08:53:09;;;;;;;1.88;1.52;;;;;;;;;;5097173;28;20207;-62
2023/12/13 08:55:37;;;;;;;1.75;1.40;;;;;;;;;;5099118;28;20212;-62
2023/12/13 08:58:04;;;;;;;1.77;1.27;;;;;;;;;;5099875;28;20203;-62
2023/12/13 09:00:33;;;;;;;1.75;1.20;;;;;;;;;;5099350;28;20298;-62
2023/12/13 09:03:01;;;;;;;2.63;1.20;;;;;;;;;;5098539;28;20234;-62
2023/12/13 09:05:29;;;;;;;3.13;1.42;;;;;;;;;;5099208;28;20195;-62
2023/12/13 09:07:56;;;;;;;2.28;1.48;;;;;;;;;;5099004;28;20196;-62
2023/12/13 09:10:24;;;;;;;1.60;1.10;;;;;;;;;;5099523;28;20204;-62
2023/12/13 09:12:51;;;;;;;2.10;1.45;;;;;;;;;;5099203;28;20302;-62
2023/12/13 09:15:19;;;;;;;1.77;1.23;;;;;;;;;;5098457;28;20228;-62
2023/12/13 09:17:48;;;;;;;3.17;1.63;;;;;;;;;;5099334;28;20204;-62
2023/12/13 09:20:15;;;;;;;1.63;1.20;;;;;;;;;;5099017;28;20204;-63
2023/12/13 09:22:43;;;;;;;2.08;1.27;;;;;;;;;;5098876;28;20311;-62
2023/12/13 09:25:12;;;;;;;1.67;1.30;;;;;;;;;;5098865;28;20219;-62
2023/12/13 09:27:40;;;;;;;2.25;1.35;;;;;;;;;;5099440;28;20242;-62
2023/12/13 09:30:09;;;;;;;2.17;1.50;;;;;;;;;;5098743;28;20299;-62
2023/12/13 09:32:36;;;;;;;2.33;1.20;;;;;;;;;;5099289;28;20203;-62
2023/12/13 09:35:05;;;;;;;1.48;1.27;;;;;;;;;;5098515;28;20583;-62
2023/12/13 09:37:33;;;;;;;1.92;1.25;;;;;;;;;;5098717;28;20685;-62
2023/12/13 09:40:00;;;;;;;1.60;1.27;;;;;;;;;;5098811;28;20208;-62
2023/12/13 09:42:27;;;;;;;2.38;1.20;;;;;;;;;;5097946;28;20200;-62
2023/12/13 09:44:56;;;;;;;2.88;1.50;;;;;;;;;;5097535;28;20677;-62
2023/12/13 09:47:25;;;;;;;1.60;1.33;;;;;;;;;;5098352;28;20199;-62
2023/12/13 09:49:53;;;;;;;1.25;1.00;;;;;;;;;;5098621;28;20233;-62
2023/12/13 09:52:22;;;;;;;1.92;1.20;;;;;;;;;;5098240;28;20218;-62
2023/12/13 09:54:51;;;;;;;1.45;1.10;;;;;;;;;;5098034;28;20200;-62
2023/12/13 09:57:18;;;;;;;1.88;1.20;;;;;;;;;;5097636;28;20478;-62
2023/12/13 09:59:46;;;;;;;2.08;1.38;;;;;;;;;;5097596;28;20207;-62
2023/12/13 10:02:14;;;;;;;1.33;1.10;;;;;;;;;;5098281;28;20481;-62
2023/12/13 10:04:42;;;;;;;1.65;1.00;;;;;;;;;;5097014;28;20627;-62
2023/12/13 10:07:10;;;;;;;2.30;1.00;;;;;;;;;;5097809;28;20207;-62
2023/12/13 10:09:38;;;;;;;1.88;1.40;;;;;;;;;;5098418;28;20202;-62
2023/12/13 10:12:07;;;;;;;2.22;1.38;;;;;;;;;;5098399;28;20204;-62
2023/12/13 10:14:36;;;;;;;1.70;1.15;;;;;;;;;;5096688;28;20227;-62
2023/12/13 10:17:03;;;;;;;2.08;1.15;;;;;;;;;;5097117;28;20212;-62
2023/12/13 10:19:32;;;;;;;1.20;1.00;;;;;;;;;;5097620;28;20214;-62
2023/12/13 10:21:59;;;;;;;1.48;1.20;;;;;;;;;;5098004;28;20214;-61
2023/12/13 10:24:28;;;;;;;1.52;1.17;;;;;;;;;;5097670;28;20223;-61
2023/12/13 10:26:57;;;;;;;1.42;1.00;;;;;;;;;;5096670;28;20203;-61
2023/12/13 10:29:25;;;;;;;1.30;1.20;;;;;;;;;;5098005;28;20204;-62
2023/12/13 10:31:53;;;;;;;1.90;1.10;;;;;;;;;;5097886;28;20587;-62
2023/12/13 10:34:20;;;;;;;1.50;1.10;;;;;;;;;;5096710;28;20560;-63
2023/12/13 10:36:49;;;;;;;2.55;1.05;;;;;;;;;;5096314;28;20200;-62
2023/12/13 10:39:17;;;;;;;1.10;1.00;;;;;;;;;;5097164;28;20203;-62
2023/12/13 10:41:45;;;;;;;1.25;0.80;;;;;;;;;;5096513;28;20199;-62
2023/12/13 10:44:16;;;;;;;1.50;1.10;;;;;;;;;;5096736;28;20224;-62
2023/12/13 10:46:47;;;;;;;1.70;1.10;;;;;;;;;;5096038;28;20204;-63
2023/12/13 10:49:17;;;;;;;1.63;1.10;;;;;;;;;;5096713;28;20200;-62
2023/12/13 10:51:46;;;;;;;1.10;1.00;;;;;;;;;;5096812;28;20203;-62
2023/12/13 10:54:13;;;;;;;1.70;1.10;;;;;;;;;;5096572;28;20192;-62
2023/12/13 10:56:41;;;;;;;1.67;1.30;;;;;;;;;;5096089;28;20220;-62
2023/12/13 10:59:10;;;;;;;1.80;1.30;;;;;;;;;;5095958;28;20210;-62
2023/12/13 11:01:41;;;;;;;1.33;1.10;;;;;;;;;;5096718;28;20221;-62
2023/12/13 11:04:10;;;;;;;2.10;1.20;;;;;;;;;;5096182;28;20219;-62
2023/12/13 11:06:38;;;;;;;1.05;0.95;;;;;;;;;;5096427;28;20218;-62
2023/12/13 11:09:09;;;;;;;1.70;1.13;;;;;;;;;;5096118;28;20200;-62
2023/12/13 11:11:37;;;;;;;2.25;1.00;;;;;;;;;;5095755;28;20235;-62
2023/12/13 11:14:04;;;;;;;1.17;0.98;;;;;;;;;;5095382;28;20228;-62
2023/12/13 11:16:39;;;;;;;1.02;0.90;;;;;;;;;;5094594;28;20215;-62
2023/12/13 11:19:08;;;;;;;1.20;0.88;;;;;;;;;;5095868;28;20209;-62
2023/12/13 11:21:35;;;;;;;1.13;1.00;;;;;;;;;;5094941;28;20264;-62
2023/12/13 11:24:13;;;;;;;2.35;1.10;;;;;;;;;;5095079;28;20232;-62
2023/12/13 11:26:42;;;;;;;1.35;0.90;;;;;;;;;;5095028;28;20238;-62
2023/12/13 11:29:15;;;;;;;1.20;0.90;;;;;;;;;;5095041;28;20214;-62
2023/12/13 11:31:49;;;;;;;0.93;0.70;;;;;;;;;;5095530;28;20222;-62
2023/12/13 11:34:19;;;;;;;1.30;0.90;;;;;;;;;;5095258;28;20297;-62
2023/12/13 11:36:47;;;;;;;1.33;1.00;;;;;;;;;;5095347;28;20211;-62
2023/12/13 11:39:14;;;;;;;1.33;0.98;;;;;;;;;;5094095;28;20204;-62
2023/12/13 11:41:42;;;;;;;1.35;0.80;;;;;;;;;;5093846;28;20269;-62
2023/12/13 11:44:11;;;;;;;1.45;0.90;;;;;;;;;;5094207;28;20641;-62
2023/12/13 11:46:38;;;;;;;1.55;1.00;;;;;;;;;;5095296;28;20222;-62
2023/12/13 11:49:06;;;;;;;0.75;0.73;;;;;;;;;;5093759;28;20206;-62
2023/12/13 11:51:35;;;;;;;1.77;0.80;;;;;;;;;;5094640;28;20207;-62
2023/12/13 11:54:02;;;;;;;1.02;0.90;;;;;;;;;;5094574;28;20207;-62
2023/12/13 11:56:29;;;;;;;0.80;0.80;;;;;;;;;;5094617;28;20196;-62
2023/12/13 11:58:58;;;;;;;0.93;0.75;;;;;;;;;;5094331;28;20204;-62
2023/12/13 12:01:26;;;;;;;1.38;0.88;;;;;;;;;;5094652;28;20203;-62
2023/12/13 12:03:54;;;;;;;1.08;0.85;;;;;;;;;;5094371;28;20203;-62
2023/12/13 12:06:23;;;;;;;1.25;1.15;;;;;;;;;;5094341;28;20625;-62
2023/12/13 12:08:52;;;;;;;0.82;0.80;;;;;;;;;;5095336;28;20204;-62
2023/12/13 12:11:20;;;;;;;0.85;0.80;;;;;;;;;;5094800;28;20202;-62
2023/12/13 12:13:47;;;;;;;0.82;0.77;;;;;;;;;;5094598;28;20214;-62
2023/12/13 12:16:15;;;;;;;0.90;0.80;;;;;;;;;;5094045;28;20497;-62
2023/12/13 12:18:43;;;;;;;0.80;0.63;;;;;;;;;;5094792;28;20195;-62
2023/12/13 12:21:12;;;;;;;0.93;0.80;;;;;;;;;;5094232;28;20199;-62
2023/12/13 12:23:40;;;;;;;1.20;0.80;;;;;;;;;;5093985;28;20306;-62
2023/12/13 12:26:12;;;;;;;1.42;0.73;;;;;;;;;;5093444;28;20479;-62
2023/12/13 12:28:40;;;;;;;0.88;0.82;;;;;;;;;;5093714;28;20651;-62
2023/12/13 12:31:09;;;;;;;0.73;0.60;;;;;;;;;;5094757;28;20632;-62
2023/12/13 12:33:37;;;;;;;1.10;0.80;;;;;;;;;;5094086;28;20207;-62
2023/12/13 12:36:04;;;;;;;2.05;0.80;;;;;;;;;;5094314;28;20204;-62
2023/12/13 12:38:31;;;;;;;1.00;0.90;;;;;;;;;;5094721;28;20199;-62
2023/12/13 12:40:59;;;;;;;0.73;0.70;;;;;;;;;;5094549;28;20214;-62
2023/12/13 12:43:28;;;;;;;0.98;0.60;;;;;;;;;;5093695;28;20206;-62
2023/12/13 12:45:55;;;;;;;0.80;0.60;;;;;;;;;;5094051;28;20223;-62
2023/12/13 12:48:22;;;;;;;2.28;0.75;;;;;;;;;;5095031;28;20528;-62
2023/12/13 12:50:50;;;;;;;2.28;0.98;;;;;;;;;;5094124;28;20622;-62
2023/12/13 12:53:17;;;;;;;1.10;0.60;;;;;;;;;;5093897;28;20211;-62
2023/12/13 12:55:45;;;;;;;1.20;0.80;;;;;;;;;;5094320;28;20195;-62
2023/12/13 12:58:12;;;;;;;0.90;0.70;;;;;;;;;;5093876;28;20199;-62
2023/12/13 13:00:41;;;;;;;1.30;0.68;;;;;;;;;;5094744;28;20206;-62
2023/12/13 13:03:09;;;;;;;1.45;0.70;;;;;;;;;;5094267;28;20239;-62
2023/12/13 13:05:36;;;;;;;1.02;0.60;;;;;;;;;;5095085;28;20226;-63
2023/12/13 13:08:03;;;;;;;0.93;0.80;;;;;;;;;;5094248;28;20480;-62
2023/12/13 13:10:31;;;;;;;0.73;0.63;;;;;;;;;;5094607;28;20210;-62
2023/12/13 13:12:58;;;;;;;2.13;0.77;;;;;;;;;;5094345;28;20215;-62
2023/12/13 13:15:26;;;;;;;0.82;0.63;;;;;;;;;;5094777;28;20537;-62
2023/12/13 13:17:54;;;;;;;1.17;0.70;;;;;;;;;;5094701;28;20234;-62
2023/12/13 13:20:22;;;;;;;1.13;0.60;;;;;;;;;;5094127;28;20230;-62
2023/12/13 13:22:49;;;;;;;2.13;0.80;;;;;;;;;;5094068;28;20214;-62
2023/12/13 13:25:17;;;;;;;0.70;0.70;;;;;;;;;;5093505;28;20231;-62
2023/12/13 13:27:45;;;;;;;1.00;0.80;;;;;;;;;;5093975;28;20214;-62
2023/12/13 13:30:13;;;;;;;0.73;0.60;;;;;;;;;;5093353;28;20264;-62
2023/12/13 13:32:41;;;;;;;0.60;0.50;;;;;;;;;;5094028;28;20204;-62
2023/12/13 13:35:10;;;;;;;2.35;0.80;;;;;;;;;;5092657;28;20554;-62
2023/12/13 13:37:38;;;;;;;0.60;0.60;;;;;;;;;;5092797;28;20214;-62
2023/12/13 13:40:06;;;;;;;1.77;0.90;;;;;;;;;;5095316;28;20206;-62
2023/12/13 13:42:33;;;;;;;1.42;0.80;;;;;;;;;;5095379;28;20204;-62
2023/12/13 13:45:01;;;;;;;0.85;0.60;;;;;;;;;;5096659;28;20316;-62
2023/12/13 13:47:28;;;;;;;0.80;0.70;;;;;;;;;;5097257;28;20223;-62
2023/12/13 13:49:56;;;;;;;1.00;0.50;;;;;;;;;;5097399;28;20353;-62
2023/12/13 13:52:25;;;;;;;1.45;0.80;;;;;;;;;;5096698;28;20646;-62
2023/12/13 13:54:53;;;;;;;0.95;0.60;;;;;;;;;;5097975;28;20265;-62
2023/12/13 13:57:20;;;;;;;0.68;0.65;;;;;;;;;;5097444;28;20210;-62
2023/12/13 13:59:48;;;;;;;0.77;0.70;;;;;;;;;;5097313;28;20212;-62
2023/12/13 14:02:20;;;;;;;1.42;0.70;;;;;;;;;;5097822;28;20608;-62
2023/12/13 14:04:48;;;;;;;1.20;0.50;;;;;;;;;;5097713;28;20231;-62
2023/12/13 14:07:16;;;;;;;0.95;0.55;;;;;;;;;;5096169;28;20211;-62
2023/12/13 14:09:45;;;;;;;0.73;0.65;;;;;;;;;;5096360;28;20222;-62
2023/12/13 14:12:13;;;;;;;1.13;0.60;;;;;;;;;;5096805;28;20204;-62
2023/12/13 14:14:40;;;;;;;1.10;0.60;;;;;;;;;;5096454;28;20322;-62
2023/12/13 14:17:09;;;;;;;0.60;0.57;;;;;;;;;;5096202;28;20298;-62
2023/12/13 14:19:37;;;;;;;0.70;0.60;;;;;;;;;;5096175;28;20287;-62
2023/12/13 14:22:06;;;;;;;2.25;0.50;;;;;;;;;;5096014;28;20199;-62
2023/12/13 14:24:34;;;;;;;0.73;0.50;;;;;;;;;;5096262;28;20603;-62
2023/12/13 14:27:03;;;;;;;1.95;0.55;;;;;;;;;;5096124;28;20222;-62
2023/12/13 14:29:30;;;;;;;0.70;0.55;;;;;;;;;;5095659;28;20591;-62
2023/12/13 14:31:57;;;;;;;0.52;0.50;;;;;;;;;;5096075;28;20203;-62
2023/12/13 14:34:25;;;;;;;1.02;0.57;;;;;;;;;;5093955;28;20766;-62
2023/12/13 14:36:52;;;;;;;1.83;0.68;;;;;;;;;;5095598;28;20726;-62
2023/12/13 14:39:22;;;;;;;0.90;0.60;;;;;;;;;;5095851;28;20212;-62
2023/12/13 14:41:49;;;;;;;1.23;0.50;;;;;;;;;;5096535;28;20718;-62
2023/12/13 14:44:19;;;;;;;1.95;0.77;;;;;;;;;;5096175;28;20200;-62
2023/12/13 14:46:47;;;;;;;0.90;0.68;;;;;;;;;;5095801;28;20563;-62
2023/12/13 14:49:14;;;;;;;0.57;0.40;;;;;;;;;;5096163;28;20238;-62